ENG CAT
Escuela de Pilotos
Teléfono 972234126 972 23 41 26
 
Aerbrava - Meteorología

Información meteorológica aeronáutica

 

En este apartado aparece la información meteorológica aeronáutica que es utilizada en las prácticas de los alumnos de la Escuela de Pilotos de nuestro centro durante su formación, por lo que puede no ser actual y se debería utilizar por su propia cuenta y riesgo. AERBRAVA no se hace responsable de su uso.

 

TIEMPO ACTUAL

Satélite Meteorológico

sat24.com

Servei Meteorològic de Catalunya

 

LEGE 070000Z 05002KT CAVOK 18/17 Q1017
LEGE 062330Z 00000KT CAVOK 19/18 Q1017
LEGE 062300Z 00000KT CAVOK 20/18 Q1017
LEGE 062230Z 00000KT CAVOK 21/18 Q1017
LEGE 062200Z 06001KT CAVOK 22/19 Q1017
LEGE 062130Z 27001KT CAVOK 22/19 Q1017
LEGE 062100Z 27003KT CAVOK 23/20 Q1017
LEGE 062030Z 22003KT CAVOK 24/20 Q1017
TAF LEGE 062300Z 0700/0724 VRB03KT 9999 FEW040 TX36/0713Z TN16/0705Z   PROB30   TEMPO 0700/0706 4000 BR   BECMG 0710/0712 17010KT   BECMG 0718/0721 VRB03KT

Aviation Weather

 
Aerbrava en el facebook Aerbrava en el twitter Aerbrava instagram Aerbrava en el youtube Aerbrava tumblr Aerbrava flikr Aerbrava pinterest

¡html Vàlid! ¡CSS Vàlid!